createdAt,value
2023-02-27T00:00:22.229Z,10.68
2023-02-27T00:02:51.214Z,10.65
2023-02-27T00:05:20.002Z,10.20
2023-02-27T00:07:47.624Z,11.40
2023-02-27T00:10:15.332Z,12.90
2023-02-27T00:12:44.514Z,11.02
2023-02-27T00:15:17.796Z,11.68
2023-02-27T00:17:45.314Z,10.55
2023-02-27T00:20:15.274Z,11.10
2023-02-27T00:22:43.170Z,10.18
2023-02-27T00:25:11.107Z,9.85
2023-02-27T00:27:40.127Z,12.20
2023-02-27T00:30:09.572Z,12.30
2023-02-27T00:32:37.039Z,10.77
2023-02-27T00:35:10.330Z,11.27
2023-02-27T00:37:37.860Z,10.00
2023-02-27T00:40:06.472Z,9.38
2023-02-27T00:42:33.827Z,9.60
2023-02-27T00:45:03.609Z,10.05
2023-02-27T00:47:32.648Z,10.77
2023-02-27T00:50:00.332Z,12.25
2023-02-27T00:52:28.174Z,11.77
2023-02-27T00:54:55.381Z,9.45
2023-02-27T00:57:23.082Z,9.13
2023-02-27T00:59:50.997Z,11.02
2023-02-27T01:02:18.714Z,9.63
2023-02-27T01:04:45.917Z,9.88
2023-02-27T01:07:13.863Z,10.88
2023-02-27T01:09:41.047Z,10.43
2023-02-27T01:12:09.063Z,9.18
2023-02-27T01:14:36.887Z,10.80
2023-02-27T01:17:04.142Z,11.00
2023-02-27T01:19:32.498Z,10.55
2023-02-27T01:21:59.644Z,9.23
2023-02-27T01:24:27.161Z,9.32
2023-02-27T01:26:54.276Z,9.52
2023-02-27T01:29:21.416Z,10.20
2023-02-27T01:31:49.236Z,9.75
2023-02-27T01:34:18.564Z,9.98
2023-02-27T01:36:45.745Z,8.90
2023-02-27T01:39:17.228Z,8.82
2023-02-27T01:41:44.357Z,10.50
2023-02-27T01:44:13.465Z,9.50
2023-02-27T01:46:41.532Z,10.32
2023-02-27T01:49:14.798Z,10.82
2023-02-27T01:51:48.272Z,10.02
2023-02-27T01:54:20.677Z,10.68
2023-02-27T01:56:48.235Z,9.35
2023-02-27T01:59:16.928Z,9.77
2023-02-27T02:01:44.791Z,8.73
2023-02-27T02:04:30.405Z,10.00
2023-02-27T02:07:12.747Z,9.77
2023-02-27T02:09:49.008Z,9.50
2023-02-27T02:12:18.847Z,8.55
2023-02-27T02:14:46.260Z,9.38
2023-02-27T02:17:27.331Z,8.55
2023-02-27T02:20:22.196Z,8.50
2023-02-27T02:23:25.580Z,9.85
2023-02-27T02:26:22.386Z,8.90
2023-02-27T02:29:28.374Z,8.50
2023-02-27T02:32:07.978Z,11.23
2023-02-27T02:34:56.916Z,10.85
2023-02-27T02:37:42.772Z,13.18
2023-02-27T02:40:47.553Z,22.40
2023-02-27T02:43:18.249Z,49.00
2023-02-27T02:46:18.929Z,42.28
2023-02-27T02:49:15.637Z,26.33
2023-02-27T02:52:02.884Z,17.85
2023-02-27T02:54:56.724Z,14.38
2023-02-27T02:57:58.421Z,12.07
2023-02-27T03:00:32.107Z,10.27
2023-02-27T03:03:13.117Z,10.57
2023-02-27T03:05:48.231Z,9.07
2023-02-27T03:08:22.201Z,10.97
2023-02-27T03:10:57.877Z,10.67
2023-02-27T03:13:46.407Z,10.98
2023-02-27T03:16:26.430Z,9.38
2023-02-27T03:18:59.588Z,9.63
2023-02-27T03:21:36.327Z,9.27
2023-02-27T03:24:08.107Z,8.40
2023-02-27T03:26:42.711Z,8.50
2023-02-27T03:29:18.430Z,8.27
2023-02-27T03:31:50.180Z,7.93
2023-02-27T03:34:29.564Z,9.52
2023-02-27T03:37:30.340Z,8.80
2023-02-27T03:40:30.927Z,9.15
2023-02-27T03:43:31.045Z,10.10
2023-02-27T03:46:20.253Z,9.40
2023-02-27T03:48:47.994Z,9.85
2023-02-27T03:51:25.369Z,8.70
2023-02-27T03:54:00.034Z,9.18
2023-02-27T03:56:56.003Z,9.20
2023-02-27T03:59:27.770Z,9.85
2023-02-27T04:01:57.278Z,10.45
2023-02-27T04:04:26.081Z,11.43
2023-02-27T04:07:23.171Z,8.73
2023-02-27T04:10:08.754Z,8.60
2023-02-27T04:12:48.957Z,8.77
2023-02-27T04:15:47.872Z,7.80
2023-02-27T04:18:43.013Z,10.50
2023-02-27T04:21:20.187Z,10.05
2023-02-27T04:23:58.107Z,11.90
2023-02-27T04:26:25.141Z,9.93
2023-02-27T04:29:07.378Z,12.10
2023-02-27T04:32:06.902Z,12.68
2023-02-27T04:34:50.984Z,11.50
2023-02-27T04:37:48.972Z,11.73
2023-02-27T04:40:20.843Z,12.45
2023-02-27T04:42:55.098Z,10.80
2023-02-27T04:45:24.775Z,10.80
2023-02-27T04:48:00.707Z,12.07
2023-02-27T04:50:41.825Z,12.10
2023-02-27T04:53:25.699Z,10.38
2023-02-27T04:56:04.784Z,12.30
2023-02-27T04:58:36.659Z,13.15
2023-02-27T05:01:12.924Z,12.70
2023-02-27T05:03:45.336Z,9.98
2023-02-27T05:06:18.191Z,13.80
2023-02-27T05:08:59.188Z,13.02
2023-02-27T05:11:41.100Z,13.80
2023-02-27T05:14:22.397Z,11.32
2023-02-27T05:16:56.914Z,13.18
2023-02-27T05:19:24.313Z,14.15
2023-02-27T05:22:09.100Z,12.07
2023-02-27T05:24:51.342Z,10.40
2023-02-27T05:27:33.013Z,12.15
2023-02-27T05:30:08.812Z,12.93
2023-02-27T05:32:39.186Z,13.40
2023-02-27T05:35:28.050Z,13.40
2023-02-27T05:38:08.450Z,13.75
2023-02-27T05:40:45.390Z,14.15
2023-02-27T05:43:23.644Z,13.75
2023-02-27T05:45:56.632Z,13.30
2023-02-27T05:48:32.591Z,13.32
2023-02-27T05:51:00.348Z,12.93
2023-02-27T05:53:33.658Z,13.75
2023-02-27T05:56:05.297Z,13.13
2023-02-27T05:58:35.675Z,14.20
2023-02-27T06:01:06.361Z,11.68
2023-02-27T06:03:35.782Z,10.50
2023-02-27T06:06:06.611Z,9.18
2023-02-27T06:08:34.521Z,8.95
2023-02-27T06:11:02.973Z,8.55
2023-02-27T06:13:30.360Z,9.00
2023-02-27T06:15:57.517Z,8.68
2023-02-27T06:18:25.011Z,8.77
2023-02-27T06:20:52.201Z,10.40
2023-02-27T06:23:19.538Z,10.55
2023-02-27T06:25:47.308Z,10.07
2023-02-27T06:28:14.717Z,11.10
2023-02-27T06:30:42.288Z,11.32
2023-02-27T06:33:10.494Z,11.88
2023-02-27T06:35:37.621Z,11.60
2023-02-27T06:38:05.189Z,10.10
2023-02-27T06:40:32.788Z,11.70
2023-02-27T06:42:59.906Z,11.52
2023-02-27T06:45:28.920Z,9.85
2023-02-27T06:47:56.037Z,11.93
2023-02-27T06:50:23.270Z,10.50
2023-02-27T06:52:50.472Z,8.90
2023-02-27T06:55:20.983Z,9.80
2023-02-27T06:57:48.967Z,12.15
2023-02-27T07:00:17.274Z,12.77
2023-02-27T07:02:44.483Z,14.35
2023-02-27T07:05:14.468Z,13.88
2023-02-27T07:07:41.742Z,15.93
2023-02-27T07:10:14.005Z,15.20
2023-02-27T07:12:41.636Z,14.25
2023-02-27T07:15:09.625Z,14.02
2023-02-27T07:17:38.336Z,14.82
2023-02-27T07:20:08.382Z,13.45
2023-02-27T07:22:35.535Z,14.20
2023-02-27T07:25:03.388Z,12.90
2023-02-27T07:27:31.482Z,14.43
2023-02-27T07:29:58.689Z,13.50
2023-02-27T07:32:25.804Z,13.65
2023-02-27T07:34:53.470Z,14.13
2023-02-27T07:37:20.803Z,13.43
2023-02-27T07:39:48.347Z,12.85
2023-02-27T07:42:15.624Z,12.88
2023-02-27T07:44:43.890Z,11.90
2023-02-27T07:47:11.546Z,12.30
2023-02-27T07:49:38.908Z,13.40
2023-02-27T07:52:07.866Z,12.43
2023-02-27T07:54:37.729Z,11.88
2023-02-27T07:57:05.567Z,11.70
2023-02-27T07:59:33.396Z,10.77
2023-02-27T08:02:00.591Z,9.55
2023-02-27T08:04:28.301Z,12.88
2023-02-27T08:06:55.562Z,9.85
2023-02-27T08:09:22.656Z,10.15
2023-02-27T08:11:49.922Z,9.15
2023-02-27T08:14:17.094Z,10.20
2023-02-27T08:16:44.705Z,12.50
2023-02-27T08:19:13.894Z,11.68
2023-02-27T08:21:41.477Z,9.85
2023-02-27T08:24:08.780Z,9.07
2023-02-27T08:26:35.907Z,9.23
2023-02-27T08:29:03.244Z,8.30
2023-02-27T08:31:30.698Z,8.75
2023-02-27T08:34:09.366Z,9.68
2023-02-27T08:36:38.223Z,8.90
2023-02-27T08:39:09.196Z,8.63
2023-02-27T08:41:36.783Z,8.98
2023-02-27T08:44:04.425Z,8.30
2023-02-27T08:46:32.075Z,8.23
2023-02-27T08:48:59.308Z,8.68
2023-02-27T08:51:26.862Z,8.57
2023-02-27T08:53:59.071Z,8.93
2023-02-27T08:56:27.489Z,8.93
2023-02-27T08:58:55.500Z,8.80
2023-02-27T09:01:22.976Z,9.00
2023-02-27T09:03:50.574Z,9.30
2023-02-27T09:06:17.707Z,9.68
2023-02-27T09:08:45.442Z,9.68
2023-02-27T09:11:12.552Z,9.40
2023-02-27T09:13:39.689Z,9.13
2023-02-27T09:16:07.133Z,9.30
2023-02-27T09:18:34.287Z,9.75
2023-02-27T09:21:02.096Z,9.68
2023-02-27T09:23:29.413Z,9.43
2023-02-27T09:25:56.529Z,9.05
2023-02-27T09:28:23.875Z,8.32
2023-02-27T09:30:51.076Z,7.30
2023-02-27T09:33:18.178Z,7.28
2023-02-27T09:35:45.360Z,6.97
2023-02-27T09:38:13.101Z,6.20
2023-02-27T09:40:45.088Z,7.40
2023-02-27T09:43:44.222Z,6.63
2023-02-27T09:46:19.223Z,6.53
2023-02-27T09:48:51.734Z,7.50
2023-02-27T09:51:20.652Z,6.25
2023-02-27T09:53:50.033Z,5.68
2023-02-27T09:56:20.818Z,5.53
2023-02-27T09:58:54.004Z,5.47
2023-02-27T10:01:30.328Z,5.57
2023-02-27T10:04:20.083Z,5.70
2023-02-27T10:07:23.336Z,5.70
2023-02-27T10:10:15.809Z,5.88
2023-02-27T10:13:05.264Z,5.90
2023-02-27T10:15:42.160Z,6.07
2023-02-27T10:18:35.598Z,5.80
2023-02-27T10:21:15.671Z,5.70
2023-02-27T10:23:47.614Z,5.30
2023-02-27T10:26:21.430Z,5.60
2023-02-27T10:28:48.851Z,5.95
2023-02-27T10:31:22.426Z,5.07
2023-02-27T10:33:51.137Z,4.60
2023-02-27T10:36:32.515Z,5.18
2023-02-27T10:39:07.247Z,4.97
2023-02-27T10:41:36.492Z,4.93
2023-02-27T10:44:03.823Z,4.90
2023-02-27T10:46:35.043Z,6.00
2023-02-27T10:49:06.716Z,4.90
2023-02-27T10:51:38.466Z,5.50
2023-02-27T10:54:24.145Z,5.30
2023-02-27T10:56:57.392Z,5.45
2023-02-27T10:59:29.482Z,5.20
2023-02-27T11:02:01.797Z,5.28
2023-02-27T11:04:38.333Z,5.43
2023-02-27T11:07:09.600Z,5.57
2023-02-27T11:09:37.443Z,6.43
2023-02-27T11:12:24.514Z,6.22
2023-02-27T11:14:54.742Z,5.75
2023-02-27T11:17:43.936Z,7.28
2023-02-27T11:20:35.642Z,7.22
2023-02-27T11:23:10.941Z,6.30
2023-02-27T11:25:38.206Z,5.63
2023-02-27T11:28:29.813Z,6.72
2023-02-27T11:31:26.888Z,6.65
2023-02-27T11:33:57.833Z,6.40
2023-02-27T11:36:46.258Z,6.60
2023-02-27T11:39:31.899Z,6.93
2023-02-27T11:42:12.339Z,7.13
2023-02-27T11:44:51.591Z,7.05
2023-02-27T11:47:27.372Z,6.90
2023-02-27T11:50:12.177Z,6.95
2023-02-27T11:53:18.000Z,6.70
2023-02-27T11:55:47.721Z,5.70
2023-02-27T11:58:19.596Z,6.20
2023-02-27T12:00:59.547Z,6.10
2023-02-27T12:03:58.006Z,6.20
2023-02-27T12:06:41.073Z,5.78
2023-02-27T12:09:39.129Z,5.80
2023-02-27T12:12:15.850Z,5.80
2023-02-27T12:14:53.116Z,5.75
2023-02-27T12:17:32.270Z,5.10
2023-02-27T12:20:19.868Z,5.40
2023-02-27T12:22:52.304Z,5.45
2023-02-27T12:25:39.120Z,5.25
2023-02-27T12:28:34.375Z,4.85
2023-02-27T12:33:59.388Z,5.45
2023-02-27T12:36:26.697Z,4.70
2023-02-27T12:38:54.571Z,5.35
2023-02-27T12:41:51.431Z,5.90
2023-02-27T12:44:44.132Z,5.55
2023-02-27T12:47:23.439Z,5.90
2023-02-27T12:50:16.143Z,5.70
2023-02-27T12:53:07.737Z,5.60
2023-02-27T12:55:47.944Z,6.30
2023-02-27T12:58:34.697Z,5.72
2023-02-27T13:01:18.791Z,5.15
2023-02-27T13:03:51.716Z,5.57
2023-02-27T13:06:30.687Z,5.53
2023-02-27T13:09:10.185Z,5.70
2023-02-27T13:12:20.045Z,6.00
2023-02-27T13:14:50.075Z,5.70
2023-02-27T13:17:27.083Z,6.07
2023-02-27T13:20:05.205Z,5.43
2023-02-27T13:23:04.170Z,6.20
2023-02-27T13:25:36.652Z,5.55
2023-02-27T13:28:09.140Z,6.68
2023-02-27T13:30:41.848Z,5.38
2023-02-27T13:33:38.088Z,6.57
2023-02-27T13:36:36.465Z,6.93
2023-02-27T13:39:03.808Z,7.13
2023-02-27T13:41:36.255Z,7.10
2023-02-27T13:44:35.841Z,7.10
2023-02-27T13:47:31.132Z,7.10
2023-02-27T13:50:03.786Z,7.53
2023-02-27T13:52:36.659Z,7.97
2023-02-27T13:55:19.007Z,7.45
2023-02-27T13:57:48.189Z,9.45
2023-02-27T14:00:15.326Z,9.40
2023-02-27T14:02:59.806Z,8.90
2023-02-27T14:05:35.438Z,8.48
2023-02-27T14:08:08.459Z,7.78
2023-02-27T14:10:37.525Z,8.23
2023-02-27T14:13:05.484Z,8.65
2023-02-27T14:15:34.000Z,8.55
2023-02-27T14:18:14.255Z,9.13
2023-02-27T14:20:51.971Z,9.35
2023-02-27T14:23:25.183Z,8.50
2023-02-27T14:26:00.185Z,8.80
2023-02-27T14:28:32.510Z,9.15
2023-02-27T14:31:18.584Z,9.55
2023-02-27T14:33:48.739Z,9.02
2023-02-27T14:36:20.922Z,9.75
2023-02-27T14:38:49.499Z,9.68
2023-02-27T14:41:29.298Z,9.43
2023-02-27T14:43:58.450Z,10.60
2023-02-27T14:46:27.418Z,9.93
2023-02-27T14:49:00.603Z,8.98
2023-02-27T14:51:30.843Z,9.40
2023-02-27T14:54:00.125Z,9.95
2023-02-27T14:56:27.762Z,10.02
2023-02-27T14:59:04.398Z,9.95
2023-02-27T15:01:36.319Z,10.10
2023-02-27T15:04:05.153Z,9.70
2023-02-27T15:06:45.435Z,8.88
2023-02-27T15:09:25.841Z,9.50
2023-02-27T15:12:03.545Z,8.48
2023-02-27T15:14:37.440Z,9.65
2023-02-27T15:17:14.803Z,8.20
2023-02-27T15:19:57.279Z,9.60
2023-02-27T15:22:38.993Z,9.32
2023-02-27T15:25:08.447Z,9.18
2023-02-27T15:27:39.919Z,9.38
2023-02-27T15:30:09.778Z,8.90
2023-02-27T15:32:43.094Z,9.02
2023-02-27T15:35:19.133Z,9.70
2023-02-27T15:37:52.221Z,9.60
2023-02-27T15:40:23.809Z,9.80
2023-02-27T15:42:53.426Z,9.93
2023-02-27T15:45:23.800Z,9.63
2023-02-27T15:47:51.642Z,10.48
2023-02-27T15:50:18.813Z,10.80
2023-02-27T15:53:07.562Z,10.88
2023-02-27T15:55:41.024Z,10.75
2023-02-27T15:58:29.133Z,10.40
2023-02-27T16:01:13.334Z,9.68
2023-02-27T16:03:46.820Z,10.48
2023-02-27T16:06:21.926Z,11.77
2023-02-27T16:08:57.809Z,10.55
2023-02-27T16:11:32.856Z,10.38
2023-02-27T16:14:00.456Z,10.23
2023-02-27T16:16:36.494Z,11.13
2023-02-27T16:19:28.434Z,10.73
2023-02-27T16:22:14.227Z,10.68
2023-02-27T16:24:42.690Z,10.23
2023-02-27T16:27:19.176Z,9.57
2023-02-27T16:29:47.349Z,9.63
2023-02-27T16:32:36.587Z,9.95
2023-02-27T16:35:05.984Z,8.88
2023-02-27T16:37:37.348Z,8.43
2023-02-27T16:40:17.908Z,8.13
2023-02-27T16:42:47.155Z,8.90
2023-02-27T16:45:20.096Z,8.32
2023-02-27T16:47:53.171Z,9.15
2023-02-27T16:50:27.011Z,8.00
2023-02-27T16:52:54.518Z,8.55
2023-02-27T16:55:22.612Z,8.88
2023-02-27T16:57:49.776Z,8.45
2023-02-27T17:00:19.469Z,8.52
2023-02-27T17:02:49.448Z,9.13
2023-02-27T17:05:17.370Z,8.27
2023-02-27T17:07:45.922Z,8.65
2023-02-27T17:10:19.219Z,9.15
2023-02-27T17:12:48.130Z,9.32
2023-02-27T17:15:16.255Z,8.43
2023-02-27T17:17:44.438Z,8.30
2023-02-27T17:20:13.525Z,9.48
2023-02-27T17:22:43.915Z,9.27
2023-02-27T17:25:12.541Z,9.63
2023-02-27T17:27:41.566Z,9.88
2023-02-27T17:30:09.541Z,9.30
2023-02-27T17:32:37.967Z,8.45
2023-02-27T17:35:05.671Z,8.10
2023-02-27T17:37:33.058Z,8.35
2023-02-27T17:40:04.044Z,8.80
2023-02-27T17:42:32.329Z,8.70
2023-02-27T17:44:59.522Z,8.57
2023-02-27T17:47:26.627Z,8.18
2023-02-27T17:49:53.791Z,8.45
2023-02-27T17:52:20.951Z,8.95
2023-02-27T17:54:48.060Z,7.85
2023-02-27T17:57:15.277Z,8.43
2023-02-27T17:59:43.598Z,8.25
2023-02-27T18:02:15.097Z,8.45
2023-02-27T18:04:42.991Z,8.20
2023-02-27T18:07:10.343Z,7.57
2023-02-27T18:09:37.459Z,9.02
2023-02-27T18:12:05.569Z,8.05
2023-02-27T18:14:32.775Z,8.73
2023-02-27T18:17:00.029Z,8.75
2023-02-27T18:19:27.281Z,9.13
2023-02-27T18:21:54.425Z,8.52
2023-02-27T18:24:21.652Z,8.73
2023-02-27T18:26:49.432Z,8.30
2023-02-27T18:29:18.460Z,8.52
2023-02-27T18:31:47.184Z,9.10
2023-02-27T18:34:16.162Z,9.05
2023-02-27T18:36:43.390Z,9.32
2023-02-27T18:39:10.951Z,9.02
2023-02-27T18:41:38.131Z,9.25
2023-02-27T18:44:07.343Z,8.88
2023-02-27T18:46:35.946Z,9.32
2023-02-27T18:49:03.403Z,9.27
2023-02-27T18:51:30.711Z,8.60
2023-02-27T18:54:00.150Z,8.68
2023-02-27T18:56:31.025Z,9.15
2023-02-27T18:59:02.316Z,9.50
2023-02-27T19:01:35.271Z,9.00
2023-02-27T19:04:05.914Z,8.95
2023-02-27T19:06:42.252Z,9.13
2023-02-27T19:09:17.459Z,9.20
2023-02-27T19:11:47.250Z,8.50
2023-02-27T19:14:16.371Z,9.18
2023-02-27T19:16:44.366Z,8.80
2023-02-27T19:19:20.055Z,8.65
2023-02-27T19:21:51.010Z,9.95
2023-02-27T19:24:18.632Z,9.65
2023-02-27T19:26:48.892Z,9.73
2023-02-27T19:29:17.541Z,9.45
2023-02-27T19:31:45.089Z,9.05
2023-02-27T19:34:14.815Z,9.38
2023-02-27T19:36:42.119Z,9.55
2023-02-27T19:39:11.184Z,9.38
2023-02-27T19:41:38.736Z,10.50
2023-02-27T19:44:06.124Z,10.13
2023-02-27T19:46:39.171Z,9.48
2023-02-27T19:49:08.537Z,10.55
2023-02-27T19:51:39.309Z,10.60
2023-02-27T19:54:06.594Z,10.52
2023-02-27T19:56:33.878Z,10.30
2023-02-27T19:59:01.656Z,10.23
2023-02-27T20:01:32.691Z,9.98
2023-02-27T20:04:01.287Z,9.85
2023-02-27T20:06:31.021Z,9.60
2023-02-27T20:08:59.163Z,9.85
2023-02-27T20:11:33.190Z,10.80
2023-02-27T20:14:00.697Z,10.55
2023-02-27T20:16:30.949Z,10.35
2023-02-27T20:18:58.779Z,10.77
2023-02-27T20:21:28.759Z,10.10
2023-02-27T20:23:56.339Z,9.65
2023-02-27T20:26:28.946Z,10.20
2023-02-27T20:29:00.184Z,9.82
2023-02-27T20:31:30.521Z,10.00
2023-02-27T20:34:00.382Z,10.07
2023-02-27T20:36:28.482Z,9.20
2023-02-27T20:38:55.912Z,10.35
2023-02-27T20:41:24.316Z,10.00
2023-02-27T20:43:52.425Z,10.43
2023-02-27T20:46:23.102Z,9.48
2023-02-27T20:48:51.101Z,10.48
2023-02-27T20:51:24.988Z,10.80
2023-02-27T20:53:57.782Z,10.77
2023-02-27T20:56:28.672Z,11.40
2023-02-27T20:58:56.118Z,9.05
2023-02-27T21:01:23.354Z,11.63
2023-02-27T21:03:51.161Z,11.68
2023-02-27T21:06:18.900Z,11.73
2023-02-27T21:08:49.093Z,11.98
2023-02-27T21:11:21.935Z,9.38
2023-02-27T21:13:50.192Z,10.82
2023-02-27T21:16:18.973Z,11.80
2023-02-27T21:18:47.207Z,12.07
2023-02-27T21:21:17.707Z,8.98
2023-02-27T21:23:45.345Z,9.10
2023-02-27T21:26:25.564Z,12.75
2023-02-27T21:29:01.674Z,11.18
2023-02-27T21:31:32.144Z,13.02
2023-02-27T21:34:01.509Z,11.60
2023-02-27T21:36:31.624Z,12.55
2023-02-27T21:39:04.376Z,12.13
2023-02-27T21:41:32.029Z,11.57
2023-02-27T21:44:00.254Z,11.73
2023-02-27T21:46:28.588Z,11.88
2023-02-27T21:48:56.047Z,12.13
2023-02-27T21:51:38.769Z,10.13
2023-02-27T21:54:09.359Z,11.90
2023-02-27T21:56:37.718Z,9.98
2023-02-27T21:59:05.170Z,13.27
2023-02-27T22:01:33.558Z,12.88
2023-02-27T22:04:02.039Z,12.70
2023-02-27T22:06:34.092Z,12.82
2023-02-27T22:09:04.963Z,12.52
2023-02-27T22:11:35.046Z,14.05
2023-02-27T22:14:05.376Z,13.05
2023-02-27T22:16:32.832Z,14.02
2023-02-27T22:19:00.242Z,13.20
2023-02-27T22:21:28.521Z,14.25
2023-02-27T22:23:58.181Z,14.75
2023-02-27T22:26:28.588Z,14.02
2023-02-27T22:28:57.358Z,14.07
2023-02-27T22:31:30.890Z,15.32
2023-02-27T22:34:12.287Z,14.68
2023-02-27T22:36:41.796Z,14.35
2023-02-27T22:39:10.218Z,14.48
2023-02-27T22:41:39.794Z,15.10
2023-02-27T22:44:12.999Z,15.48
2023-02-27T22:46:43.257Z,16.15
2023-02-27T22:49:19.378Z,14.27
2023-02-27T22:51:50.731Z,15.75
2023-02-27T22:54:20.897Z,15.75
2023-02-27T22:56:50.857Z,15.35
2023-02-27T22:59:18.283Z,16.13
2023-02-27T23:01:45.797Z,15.73
2023-02-27T23:04:13.173Z,16.35
2023-02-27T23:06:41.110Z,14.93
2023-02-27T23:09:12.447Z,15.70
2023-02-27T23:11:40.400Z,15.73
2023-02-27T23:14:07.645Z,15.80
2023-02-27T23:16:35.269Z,16.17
2023-02-27T23:19:04.225Z,14.25
2023-02-27T23:21:35.099Z,14.88
2023-02-27T23:24:10.142Z,15.52
2023-02-27T23:26:39.885Z,15.60
2023-02-27T23:29:07.335Z,14.95
2023-02-27T23:31:35.991Z,14.25
2023-02-27T23:34:06.162Z,13.25
2023-02-27T23:36:37.804Z,13.38
2023-02-27T23:39:05.942Z,14.80
2023-02-27T23:41:34.300Z,15.82
2023-02-27T23:44:20.347Z,16.25
2023-02-27T23:46:47.475Z,16.15
2023-02-27T23:49:14.766Z,16.65
2023-02-27T23:51:42.066Z,14.77
2023-02-27T23:54:09.195Z,12.55
2023-02-27T23:56:36.833Z,15.75
2023-02-27T23:59:06.348Z,16.13
